Spiro, Oklahoma
Current Conditions -  °F | °C
As of 5:55 PM on Wednesday 26 Nov 2014 (Local Time) from KRKR Reporting Station
Clear Clear  
Wind Chill: 51°   Ceiling: Unl
Heat Index: 51°   Visibility: 10mi
Dew Point: 28°   Wind: 6mph
Humidity: 41%   Direction: 330°NNW
Pressure: 30.2"   Gusts: NA
Location:  35.24°N, 94.62°W
Report Text: KRKR 262355Z AUTO 33005KT 10SM CLR 11/M02 A3020 RMK AO2 T01051023 10140 20103
Loading
Personal Weather Stations






























Interactive Weather Map New forecast layout! Learn more

10-Day Weather Forecast

Advertisements
Track Severe Weather on mobile